KHII/HII METAR and TAF weather

Enter ICAO airport designator
Station Type Date Time Source
KHII METAR 2020/11/25 22:35 UTC NOAA

KHII 252235Z AUTO 20005KT 10SM CLR 20/M06 A3001 RMK AO2


Station Type Date Time Source
KHII Decoded METAR 2020/11/25 22:35 UTC NOAA

Station name not available
Nov 25, 2020 - 05:35 PM EST / 2020.11.25 2235 UTC
Wind: from the SSW (200 degrees) at 6 MPH (5 KT):0
Visibility: 10 mile(s):0
Sky conditions: clear
Temperature: 68 F (20 C)
Dew Point: 21 F (-6 C)
Relative Humidity: 16%
Pressure (altimeter): 30.01 in. Hg (1016 hPa)
ob: KHII 252235Z AUTO 20005KT 10SM CLR 20/M06 A3001 RMK AO2
cycle: 22

Station Type Date Time Source
KHII TAF UTC NOAA

Error!

Example: see airport list